Time;durP1;ratioP1;P1;durP2;ratioP2;P2;SDS_P1;SDS_P2;PMS_P1;PMS_P2;Temp;Humidity;BMP_temperature;BMP_pressure;BME280_temperature;BME280_humidity;BME280_pressure;Samples;Min_cycle;Max_cycle;Signal;HPM_P1;HPM_P2
2023/10/30 00:02:24;;;;;;;10.17;9.03;;;;;;;5.16;100.00;98524.59;6104540;23;20250;-88
2023/10/30 00:04:53;;;;;;;10.70;9.70;;;;;;;5.17;100.00;98528.91;6104410;23;20167;-87
2023/10/30 00:07:25;;;;;;;10.17;9.20;;;;;;;5.15;100.00;98532.78;6127128;23;20204;-88
2023/10/30 00:09:58;;;;;;;10.73;9.47;;;;;;;5.15;100.00;98528.28;6104563;23;20182;-87
2023/10/30 00:12:38;;;;;;;10.37;9.30;;;;;;;5.17;100.00;98530.72;6106708;23;20152;-86
2023/10/30 00:15:08;;;;;;;10.30;9.40;;;;;;;5.16;100.00;98542.38;6104504;23;20210;-87
2023/10/30 00:17:40;;;;;;;9.83;9.00;;;;;;;5.16;100.00;98537.06;6104385;23;20172;-87
2023/10/30 00:20:11;;;;;;;10.70;9.67;;;;;;;5.15;100.00;98535.44;6104808;23;20251;-88
2023/10/30 00:22:39;;;;;;;11.27;10.10;;;;;;;5.16;100.00;98545.03;6127971;23;20172;-88
2023/10/30 00:25:08;;;;;;;10.63;9.60;;;;;;;5.16;100.00;98547.69;6103979;23;20195;-88
2023/10/30 00:27:41;;;;;;;10.20;9.20;;;;;;;5.21;100.00;98545.22;6103963;23;20172;-86
2023/10/30 00:30:11;;;;;;;10.50;9.50;;;;;;;5.20;100.00;98541.75;6128738;23;20604;-87
2023/10/30 00:32:41;;;;;;;10.87;9.80;;;;;;;5.19;100.00;98547.25;6104095;23;20165;-86
2023/10/30 00:35:14;;;;;;;10.97;9.80;;;;;;;5.20;100.00;98548.88;6127280;23;20243;-88
2023/10/30 00:37:44;;;;;;;10.47;9.53;;;;;;;5.19;100.00;98540.09;6127121;23;20194;-87
2023/10/30 00:40:12;;;;;;;10.50;9.50;;;;;;;5.15;100.00;98541.56;6103790;23;20171;-87
2023/10/30 00:42:43;;;;;;;10.27;9.30;;;;;;;5.17;100.00;98542.16;6103820;23;20238;-88
2023/10/30 00:45:17;;;;;;;11.10;9.60;;;;;;;5.20;100.00;98549.72;6081891;23;20164;-86
2023/10/30 00:47:47;;;;;;;10.20;9.30;;;;;;;5.19;100.00;98545.41;6103873;23;20168;-90
2023/10/30 00:50:20;;;;;;;10.67;9.57;;;;;;;5.17;100.00;98541.34;6104250;23;20596;-86
2023/10/30 00:53:09;;;;;;;10.20;9.30;;;;;;;5.16;100.00;98534.41;6107489;23;20195;-88
2023/10/30 00:55:40;;;;;;;10.80;9.77;;;;;;;5.12;100.00;98544.66;6103538;23;20201;-88
2023/10/30 00:58:08;;;;;;;10.03;9.17;;;;;;;5.13;100.00;98540.16;6080017;23;20603;-88
2023/10/30 01:00:35;;;;;;;10.70;9.70;;;;;;;5.13;100.00;98532.97;6079373;23;20171;-88
2023/10/30 01:03:09;;;;;;;11.27;10.00;;;;;;;5.15;100.00;98525.63;6103685;23;20168;-87
2023/10/30 01:05:43;;;;;;;10.20;9.20;;;;;;;5.15;100.00;98520.31;6082144;23;20625;-86
2023/10/30 01:08:11;;;;;;;11.47;9.40;;;;;;;5.12;100.00;98526.06;6079048;23;20227;-88
2023/10/30 01:10:39;;;;;;;10.40;9.50;;;;;;;5.12;100.00;98531.38;6103062;23;20180;-87
2023/10/30 01:13:08;;;;;;;9.87;8.97;;;;;;;5.09;100.00;98521.16;6103431;23;20257;-88
2023/10/30 01:15:37;;;;;;;11.30;10.20;;;;;;;5.07;100.00;98517.91;6103160;23;20266;-87
2023/10/30 01:18:22;;;;;;;10.13;9.13;;;;;;;5.06;100.00;98518.13;6126701;23;20179;-88
2023/10/30 01:20:53;;;;;;;9.30;8.40;;;;;;;5.06;100.00;98532.19;6127013;23;20163;-88
2023/10/30 01:23:22;;;;;;;9.80;8.90;;;;;;;5.08;100.00;98532.81;6126756;23;20168;-87
2023/10/30 01:25:51;;;;;;;10.70;9.33;;;;;;;5.10;100.00;98521.97;6127527;23;20185;-87
2023/10/30 01:28:21;;;;;;;10.80;9.70;;;;;;;5.09;100.00;98518.50;6127140;23;20185;-88
2023/10/30 01:30:48;;;;;;;11.37;10.00;;;;;;;5.06;100.00;98526.06;6102578;23;20218;-88
2023/10/30 01:33:19;;;;;;;10.80;9.43;;;;;;;5.06;100.00;98523.41;6078837;23;20179;-88
2023/10/30 01:35:48;;;;;;;13.10;11.40;;;;;;;5.04;100.00;98520.97;6128081;23;20176;-88
2023/10/30 01:38:20;;;;;;;13.80;11.93;;;;;;;5.06;100.00;98526.06;6103264;23;20168;-88
2023/10/30 01:40:50;;;;;;;12.90;11.70;;;;;;;5.06;100.00;98529.56;6079468;23;20526;-88
2023/10/30 01:43:33;;;;;;;11.90;10.70;;;;;;;5.06;100.00;98520.75;6102952;23;20171;-87
2023/10/30 01:46:02;;;;;;;11.83;10.63;;;;;;;5.06;100.00;98518.94;6079118;23;20248;-88
2023/10/30 01:48:38;;;;;;;12.57;11.23;;;;;;;5.06;100.00;98523.41;6103137;23;20169;-87
2023/10/30 01:51:11;;;;;;;11.87;10.67;;;;;;;5.05;100.00;98527.09;6104034;23;20167;-87
2023/10/30 01:53:42;;;;;;;12.20;11.00;;;;;;;5.05;100.00;98537.72;6080068;23;20175;-87
2023/10/30 01:56:12;;;;;;;14.53;11.30;;;;;;;5.04;100.00;98534.25;6078877;23;20187;-87
2023/10/30 01:58:41;;;;;;;12.57;11.10;;;;;;;5.04;100.00;98536.09;6080095;23;20191;-88
2023/10/30 02:01:13;;;;;;;13.17;11.77;;;;;;;5.04;100.00;98536.09;6103670;23;20182;-89
2023/10/30 02:03:46;;;;;;;12.60;11.33;;;;;;;5.03;100.00;98531.81;6103711;23;20194;-87
2023/10/30 02:06:15;;;;;;;12.27;11.07;;;;;;;5.02;100.00;98530.19;6127522;23;20238;-88
2023/10/30 02:08:47;;;;;;;11.27;10.17;;;;;;;5.00;100.00;98532.22;6126706;23;20160;-88
2023/10/30 02:11:17;;;;;;;12.07;10.87;;;;;;;5.00;100.00;98540.19;6102807;23;20177;-89
2023/10/30 02:13:54;;;;;;;12.23;10.93;;;;;;;4.93;100.00;98536.75;6102645;23;20182;-87
2023/10/30 02:16:23;;;;;;;12.27;11.07;;;;;;;4.89;100.00;98544.31;6102255;23;20530;-88
2023/10/30 02:18:55;;;;;;;12.17;10.67;;;;;;;4.87;100.00;98549.84;6102839;23;20175;-87
2023/10/30 02:21:25;;;;;;;11.33;10.13;;;;;;;4.88;100.00;98555.97;6126008;23;20171;-88
2023/10/30 02:24:04;;;;;;;10.80;9.70;;;;;;;4.85;100.00;98562.47;6126132;23;20187;-86
2023/10/30 02:26:34;;;;;;;11.10;9.97;;;;;;;4.83;100.00;98545.16;6102064;23;20167;-88
2023/10/30 02:29:04;;;;;;;11.20;10.10;;;;;;;4.83;100.00;98551.28;6126591;23;20218;-88
2023/10/30 02:31:33;;;;;;;10.63;9.53;;;;;;;4.84;100.00;98568.03;6101980;23;20182;-88
2023/10/30 02:34:03;;;;;;;10.97;9.77;;;;;;;4.83;100.00;98580.47;6126227;23;20189;-88
2023/10/30 02:36:34;;;;;;;10.43;9.33;;;;;;;4.78;100.00;98564.34;6102385;23;20191;-88
2023/10/30 02:39:07;;;;;;;9.80;8.80;;;;;;;4.79;100.00;98557.22;6126190;23;20168;-88
2023/10/30 02:41:37;;;;;;;9.53;8.73;;;;;;;4.79;100.00;98565.16;6102483;23;20227;-87
2023/10/30 02:44:11;;;;;;;9.60;8.70;;;;;;;4.78;100.00;98560.88;6102795;23;20164;-88
2023/10/30 02:46:39;;;;;;;9.83;8.63;;;;;;;4.76;100.00;98560.25;6078708;23;20163;-89
2023/10/30 02:49:08;;;;;;;9.13;8.23;;;;;;;4.79;100.00;98551.91;6102105;23;20179;-87
2023/10/30 02:51:36;;;;;;;9.50;8.60;;;;;;;4.77;100.00;98549.44;6102413;23;20251;-88
2023/10/30 02:54:05;;;;;;;8.90;8.10;;;;;;;4.77;100.00;98552.09;6127593;23;20171;-88
2023/10/30 02:56:36;;;;;;;9.17;8.37;;;;;;;4.76;100.00;98552.31;6126669;23;20192;-88
2023/10/30 02:59:04;;;;;;;8.67;7.80;;;;;;;4.76;100.00;98555.78;6102008;23;20167;-87
2023/10/30 03:01:36;;;;;;;8.60;7.80;;;;;;;4.78;100.00;98547.63;6103049;23;20177;-87
2023/10/30 03:04:05;;;;;;;8.37;7.33;;;;;;;4.79;100.00;98555.38;6126205;23;20222;-88
2023/10/30 03:06:34;;;;;;;8.83;8.00;;;;;;;4.81;100.00;98555.16;6102079;23;20195;-88
2023/10/30 03:09:02;;;;;;;8.63;7.77;;;;;;;4.82;100.00;98554.13;6127455;23;20160;-87
2023/10/30 03:11:32;;;;;;;9.17;8.27;;;;;;;4.81;100.00;98553.31;6102245;23;20243;-86
2023/10/30 03:14:00;;;;;;;8.50;7.53;;;;;;;4.79;100.00;98554.56;6102632;23;20163;-87
2023/10/30 03:16:31;;;;;;;8.20;7.40;;;;;;;4.81;100.00;98560.47;6102515;23;20189;-89
2023/10/30 03:19:03;;;;;;;8.57;7.63;;;;;;;4.79;100.00;98563.34;6102740;23;20171;-86
2023/10/30 03:21:33;;;;;;;7.93;7.17;;;;;;;4.80;100.00;98564.16;6127477;23;20160;-86
2023/10/30 03:24:00;;;;;;;8.10;7.40;;;;;;;4.79;100.00;98567.81;6125647;23;20188;-90
2023/10/30 03:26:27;;;;;;;9.13;7.70;;;;;;;4.81;100.00;98563.94;6125944;23;20622;-89
2023/10/30 03:28:59;;;;;;;7.87;7.13;;;;;;;4.81;100.00;98563.09;6102647;23;20246;-88
2023/10/30 03:31:28;;;;;;;8.47;7.70;;;;;;;4.81;100.00;98565.75;6126447;23;20171;-88
2023/10/30 03:33:57;;;;;;;8.03;7.30;;;;;;;4.81;100.00;98568.41;6102047;23;20195;-89
2023/10/30 03:36:25;;;;;;;8.53;7.73;;;;;;;4.81;100.00;98568.41;6126705;23;20187;-86
2023/10/30 03:38:53;;;;;;;8.70;7.53;;;;;;;4.82;100.00;98564.75;6126190;23;20190;-88
2023/10/30 03:41:23;;;;;;;9.93;7.93;;;;;;;4.83;100.00;98567.19;6125871;23;20227;-88
2023/10/30 03:43:52;;;;;;;8.17;7.37;;;;;;;4.82;100.00;98570.06;6102058;23;20202;-87
2023/10/30 03:46:19;;;;;;;9.00;8.17;;;;;;;4.83;100.00;98574.34;6126557;23;20175;-89
2023/10/30 03:48:55;;;;;;;8.83;7.93;;;;;;;4.79;100.00;98575.78;6102145;23;20191;-89
2023/10/30 03:51:25;;;;;;;8.20;7.40;;;;;;;4.80;100.00;98572.94;6102666;23;20633;-88
2023/10/30 03:53:53;;;;;;;8.20;7.47;;;;;;;4.79;100.00;98581.91;6125561;23;20170;-87
2023/10/30 03:56:35;;;;;;;8.30;7.50;;;;;;;4.80;100.00;98578.25;6126100;23;20251;-86
2023/10/30 03:59:07;;;;;;;9.17;8.27;;;;;;;4.81;100.00;98579.84;6079987;23;20243;-88
2023/10/30 04:01:36;;;;;;;7.30;6.70;;;;;;;4.81;100.00;98590.47;6126055;23;20218;-88
2023/10/30 04:04:08;;;;;;;8.60;7.70;;;;;;;4.83;100.00;98582.31;6102120;23;20171;-88
2023/10/30 04:06:44;;;;;;;8.53;7.77;;;;;;;4.84;100.00;98583.94;6125820;23;20195;-87
2023/10/30 04:09:18;;;;;;;8.23;7.43;;;;;;;4.85;100.00;98573.09;6125983;23;20636;-87
2023/10/30 04:11:49;;;;;;;8.77;7.97;;;;;;;4.84;100.00;98574.16;6079612;23;20171;-88
2023/10/30 04:14:20;;;;;;;8.53;7.73;;;;;;;4.86;100.00;98585.34;6101775;23;20171;-88
2023/10/30 04:16:52;;;;;;;8.83;8.00;;;;;;;4.87;100.00;98596.78;6125493;23;20250;-87
2023/10/30 04:19:19;;;;;;;9.10;8.20;;;;;;;4.85;100.00;98594.34;6101296;23;20187;-87
2023/10/30 04:21:50;;;;;;;9.37;8.07;;;;;;;4.85;100.00;98602.28;6102276;23;20605;-88
2023/10/30 04:24:20;;;;;;;9.47;8.57;;;;;;;4.84;100.00;98616.59;6078436;23;20188;-87
2023/10/30 04:26:51;;;;;;;8.47;7.57;;;;;;;4.84;100.00;98611.31;6079499;23;20250;-87
2023/10/30 04:29:19;;;;;;;8.70;7.90;;;;;;;4.85;100.00;98609.47;6101621;23;20171;-88
2023/10/30 04:31:46;;;;;;;8.17;7.37;;;;;;;4.86;100.00;98619.03;6101683;23;20168;-87
2023/10/30 04:34:14;;;;;;;8.53;7.67;;;;;;;4.85;100.00;98609.47;6101360;23;20204;-87
2023/10/30 04:36:42;;;;;;;8.20;7.40;;;;;;;4.85;100.00;98620.09;6125617;23;20192;-88
2023/10/30 04:39:11;;;;;;;8.53;7.73;;;;;;;4.84;100.00;98624.56;6101704;23;20612;-88
2023/10/30 04:41:40;;;;;;;8.40;7.60;;;;;;;4.84;100.00;98624.56;6078119;23;20261;-88
2023/10/30 04:44:09;;;;;;;8.33;7.53;;;;;;;4.84;100.00;98618.44;6103250;23;20168;-88
2023/10/30 04:46:37;;;;;;;7.97;7.23;;;;;;;4.83;100.00;98620.28;6128905;23;20231;-87
2023/10/30 04:49:06;;;;;;;8.43;7.57;;;;;;;4.85;100.00;98628.84;6102862;23;20248;-87
2023/10/30 04:51:36;;;;;;;7.57;6.87;;;;;;;4.83;100.00;98632.72;6103841;23;20164;-88
2023/10/30 04:54:07;;;;;;;7.87;7.17;;;;;;;4.82;100.00;98628.44;6079440;23;20174;-88
2023/10/30 04:56:35;;;;;;;8.57;7.77;;;;;;;4.85;100.00;98636.00;6079293;23;20200;-87
2023/10/30 04:59:04;;;;;;;7.50;6.80;;;;;;;4.85;100.00;98622.75;6102565;23;20588;-87
2023/10/30 05:01:32;;;;;;;7.70;7.00;;;;;;;4.86;100.00;98617.19;6103136;23;20251;-87
2023/10/30 05:04:03;;;;;;;8.33;7.10;;;;;;;4.88;100.00;98619.66;6102377;23;20175;-86
2023/10/30 05:06:32;;;;;;;7.80;7.07;;;;;;;4.88;100.00;98617.00;6102804;23;20259;-87
2023/10/30 05:09:03;;;;;;;7.30;6.60;;;;;;;4.88;100.00;98623.13;6103245;23;20184;-88
2023/10/30 05:11:32;;;;;;;7.93;7.10;;;;;;;4.89;100.00;98621.28;6103052;23;20266;-87
2023/10/30 05:14:01;;;;;;;7.30;6.70;;;;;;;4.89;100.00;98618.63;6103088;23;20183;-87
2023/10/30 05:16:30;;;;;;;7.67;6.87;;;;;;;4.89;100.00;98618.63;6079182;23;20267;-87
2023/10/30 05:18:58;;;;;;;7.47;6.73;;;;;;;4.89;100.00;98616.00;6102500;23;20222;-88
2023/10/30 05:21:27;;;;;;;7.57;6.70;;;;;;;4.87;100.00;98618.03;6126395;23;20167;-87
2023/10/30 05:23:54;;;;;;;8.10;7.30;;;;;;;4.88;100.00;98628.44;6124220;23;20222;-85
2023/10/30 05:26:22;;;;;;;7.27;6.67;;;;;;;4.88;100.00;98632.94;6125395;23;20184;-88
2023/10/30 05:28:50;;;;;;;7.23;6.53;;;;;;;4.90;100.00;98627.41;6102080;23;20187;-88
2023/10/30 05:31:27;;;;;;;9.50;6.93;;;;;;;4.91;100.00;98621.88;6102009;23;20254;-88
2023/10/30 05:34:02;;;;;;;7.50;6.87;;;;;;;4.91;100.00;98627.19;6105085;23;20230;-88
2023/10/30 05:36:31;;;;;;;7.63;6.93;;;;;;;4.90;100.00;98630.88;6126566;23;20191;-87
2023/10/30 05:38:59;;;;;;;7.60;6.90;;;;;;;4.91;100.00;98643.13;6124941;23;20206;-86
2023/10/30 05:41:30;;;;;;;8.40;7.60;;;;;;;4.94;100.00;98641.91;6126822;23;20193;-88
2023/10/30 05:43:57;;;;;;;9.63;8.63;;;;;;;4.96;100.00;98639.84;6102114;23;20195;-86
2023/10/30 05:46:26;;;;;;;9.57;8.57;;;;;;;4.98;100.00;98633.31;6126716;23;20172;-88
2023/10/30 05:48:53;;;;;;;9.27;8.40;;;;;;;5.03;100.00;98643.31;6102310;23;20168;-88
2023/10/30 05:51:22;;;;;;;8.73;7.97;;;;;;;5.04;100.00;98632.47;6102463;23;20171;-88
2023/10/30 05:53:57;;;;;;;8.63;7.73;;;;;;;5.05;100.00;98639.41;6125761;23;20176;-87
2023/10/30 05:56:24;;;;;;;9.33;8.43;;;;;;;5.06;100.00;98648.19;6078923;23;20192;-88
2023/10/30 05:58:53;;;;;;;10.03;9.13;;;;;;;5.09;100.00;98656.56;6102178;23;20598;-87
2023/10/30 06:01:23;;;;;;;10.13;9.23;;;;;;;5.10;100.00;98647.56;6126621;23;20222;-87
2023/10/30 06:03:51;;;;;;;10.53;9.53;;;;;;;5.12;100.00;98652.69;6126448;23;20180;-88
2023/10/30 06:06:24;;;;;;;9.57;8.67;;;;;;;5.18;100.00;98659.81;6078711;23;20256;-87
2023/10/30 06:08:54;;;;;;;10.80;9.70;;;;;;;5.21;100.00;98667.38;6125749;23;20167;-88
2023/10/30 06:11:23;;;;;;;10.60;9.63;;;;;;;5.23;100.00;98678.56;6126520;23;20615;-88
2023/10/30 06:13:52;;;;;;;10.87;9.77;;;;;;;5.24;100.00;98669.59;6102150;23;20565;-87
2023/10/30 06:16:20;;;;;;;11.40;10.33;;;;;;;5.27;100.00;98664.66;6102025;23;20641;-86
2023/10/30 06:18:50;;;;;;;10.07;9.07;;;;;;;5.32;100.00;98662.22;6126208;23;20171;-87
2023/10/30 06:21:22;;;;;;;9.93;9.03;;;;;;;5.38;100.00;98673.03;6127467;23;20175;-86
2023/10/30 06:23:56;;;;;;;8.47;7.67;;;;;;;5.41;100.00;98675.28;6101829;23;20271;-86
2023/10/30 06:26:29;;;;;;;8.13;7.50;;;;;;;5.50;100.00;98677.50;6103516;23;20218;-89
2023/10/30 06:28:57;;;;;;;8.73;7.57;;;;;;;5.55;100.00;98682.97;6102092;23;20179;-89
2023/10/30 06:31:35;;;;;;;7.63;6.90;;;;;;;5.65;100.00;98686.00;6126469;23;20172;-88
2023/10/30 06:34:06;;;;;;;7.97;7.27;;;;;;;5.69;100.00;98692.53;6101915;23;20176;-87
2023/10/30 06:36:36;;;;;;;7.90;7.17;;;;;;;5.77;100.00;98702.13;6102585;23;20274;-87
2023/10/30 06:39:07;;;;;;;7.63;6.83;;;;;;;5.81;100.00;98699.84;6125724;23;20247;-87
2023/10/30 06:41:38;;;;;;;7.10;6.50;;;;;;;5.85;100.00;98687.75;6080380;23;20175;-89
2023/10/30 06:44:15;;;;;;;7.10;6.40;;;;;;;5.94;100.00;98683.84;6103111;23;20194;-88
2023/10/30 06:46:44;;;;;;;7.63;6.93;;;;;;;6.01;100.00;98689.97;6103004;23;20174;-87
2023/10/30 06:49:13;;;;;;;7.30;6.60;;;;;;;6.07;100.00;98681.13;6125984;23;20263;-88
2023/10/30 06:51:42;;;;;;;7.93;7.13;;;;;;;6.15;100.00;98681.72;6102180;23;20172;-89
2023/10/30 06:54:12;;;;;;;7.30;6.57;;;;;;;6.20;100.00;98684.50;6078501;23;20172;-87
2023/10/30 06:56:42;;;;;;;7.50;6.60;;;;;;;6.25;100.00;98707.03;6102115;23;20276;-88
2023/10/30 06:59:14;;;;;;;7.60;6.90;;;;;;;6.26;100.00;98706.78;6101708;23;20222;-87
2023/10/30 07:01:43;;;;;;;8.63;7.20;;;;;;;6.23;100.00;98704.56;6079386;23;20172;-87
2023/10/30 07:04:34;;;;;;;7.53;6.67;;;;;;;6.27;100.00;98715.59;6101508;23;20239;-87
2023/10/30 07:07:04;;;;;;;6.80;6.20;;;;;;;6.31;100.00;98703.47;6123127;23;20210;-86
2023/10/30 07:09:35;;;;;;;7.53;6.70;;;;;;;6.32;100.00;98682.00;6100790;23;20174;-87
2023/10/30 07:12:06;;;;;;;7.73;7.03;;;;;;;6.39;100.00;98688.06;6101918;23;20227;-87
2023/10/30 07:14:39;;;;;;;8.10;7.23;;;;;;;6.43;100.00;98685.81;6101878;23;20187;-88
2023/10/30 07:17:07;;;;;;;8.50;6.90;;;;;;;6.48;100.00;98697.44;6100858;23;20198;-88
2023/10/30 07:19:39;;;;;;;7.53;6.50;;;;;;;6.53;100.00;98710.09;6101730;23;20174;-88
2023/10/30 07:22:14;;;;;;;7.57;6.83;;;;;;;6.60;100.00;98710.88;6103261;23;20216;-88
2023/10/30 07:24:46;;;;;;;7.63;6.43;;;;;;;6.67;100.00;98708.97;6101998;23;20218;-88
2023/10/30 07:27:19;;;;;;;7.23;6.60;;;;;;;6.74;100.00;98706.25;6077763;23;20165;-86
2023/10/30 07:29:48;;;;;;;7.20;6.37;;;;;;;6.84;100.00;98712.72;6101235;23;20164;-87
2023/10/30 07:32:18;;;;;;;8.63;7.17;;;;;;;6.95;100.00;98724.53;6101769;23;20171;-87
2023/10/30 07:34:46;;;;;;;7.57;6.80;;;;;;;7.00;100.00;98717.47;6101437;23;20175;-86
2023/10/30 07:37:15;;;;;;;7.27;6.57;;;;;;;7.12;100.00;98704.28;6077836;23;20199;-88
2023/10/30 07:39:50;;;;;;;7.17;6.53;;;;;;;7.24;100.00;98702.50;6125691;23;20242;-88
2023/10/30 07:42:25;;;;;;;7.77;7.07;;;;;;;7.33;100.00;98701.19;6102050;23;20246;-87
2023/10/30 07:44:54;;;;;;;7.70;7.00;;;;;;;7.44;100.00;98692.47;6101809;23;20210;-87
2023/10/30 07:47:21;;;;;;;7.00;6.40;;;;;;;7.56;100.00;98689.84;6101155;23;20178;-88
2023/10/30 07:50:09;;;;;;;8.10;7.30;;;;;;;7.69;100.00;98683.56;6105290;23;20248;-87
2023/10/30 07:52:38;;;;;;;8.33;7.00;;;;;;;7.79;100.00;98692.66;6101744;23;20176;-86
2023/10/30 07:55:10;;;;;;;7.30;6.70;;;;;;;7.91;100.00;98692.72;6102808;23;20166;-85
2023/10/30 07:57:42;;;;;;;7.53;6.83;;;;;;;8.04;100.00;98694.41;6125601;23;20180;-87
2023/10/30 08:00:11;;;;;;;8.40;7.00;;;;;;;8.16;100.00;98693.41;6077764;23;20172;-87
2023/10/30 08:02:42;;;;;;;8.43;7.63;;;;;;;8.25;100.00;98685.91;6101724;23;20177;-87
2023/10/30 08:05:15;;;;;;;8.40;7.60;;;;;;;8.42;100.00;98683.41;6124993;23;20183;-86
2023/10/30 08:07:45;;;;;;;8.83;8.13;;;;;;;8.58;100.00;98677.44;6124321;23;20218;-86
2023/10/30 08:10:15;;;;;;;9.50;8.70;;;;;;;8.73;100.00;98673.25;6125227;23;20243;-87
2023/10/30 08:12:52;;;;;;;9.40;8.50;;;;;;;8.80;100.00;98665.16;6102363;23;20163;-87
2023/10/30 08:15:24;;;;;;;9.80;8.83;;;;;;;8.88;100.00;98662.13;6125180;23;20235;-88
2023/10/30 08:17:55;;;;;;;9.30;8.37;;;;;;;8.99;100.00;98657.84;6101932;23;20243;-87
2023/10/30 08:20:24;;;;;;;9.13;8.33;;;;;;;9.07;100.00;98654.81;6127031;23;20187;-88
2023/10/30 08:22:51;;;;;;;10.60;9.50;;;;;;;9.14;100.00;98650.16;6079080;23;20176;-87
2023/10/30 08:25:19;;;;;;;10.40;9.43;;;;;;;9.20;100.00;98644.69;6103026;23;20184;-86
2023/10/30 08:27:48;;;;;;;10.67;9.77;;;;;;;9.32;100.00;98652.69;6103210;23;20175;-87
2023/10/30 08:30:17;;;;;;;12.03;10.73;;;;;;;9.37;100.00;98647.47;6103095;23;20176;-86
2023/10/30 08:32:46;;;;;;;11.00;9.83;;;;;;;9.39;100.00;98650.69;6078771;23;20179;-87
2023/10/30 08:35:14;;;;;;;10.17;9.27;;;;;;;9.45;100.00;98652.44;6079033;23;20175;-86
2023/10/30 08:37:44;;;;;;;10.83;9.93;;;;;;;9.51;100.00;98664.06;6079027;23;20255;-87
2023/10/30 08:40:12;;;;;;;10.80;9.70;;;;;;;9.58;100.00;98667.41;6102781;23;20171;-87
2023/10/30 08:42:46;;;;;;;10.50;9.50;;;;;;;9.63;100.00;98684.38;6103472;23;20176;-86
2023/10/30 08:45:17;;;;;;;10.90;9.90;;;;;;;9.69;100.00;98686.09;6104435;23;20203;-87
2023/10/30 08:47:46;;;;;;;10.17;9.00;;;;;;;9.70;100.00;98682.34;6078531;23;20231;-87
2023/10/30 08:50:13;;;;;;;10.97;9.87;;;;;;;9.75;100.00;98686.22;6102462;23;20182;-87
2023/10/30 08:52:45;;;;;;;10.37;9.47;;;;;;;9.79;100.00;98672.13;6102440;23;20168;-85
2023/10/30 08:55:19;;;;;;;9.87;8.97;;;;;;;9.81;100.00;98659.31;6103228;23;20176;-87
2023/10/30 08:57:48;;;;;;;10.97;9.87;;;;;;;9.84;100.00;98656.19;6079394;23;20191;-88
2023/10/30 09:00:19;;;;;;;11.17;9.70;;;;;;;9.87;100.00;98668.25;6080118;23;20175;-86
2023/10/30 09:02:47;;;;;;;11.43;10.43;;;;;;;9.89;100.00;98669.63;6077841;23;20168;-86
2023/10/30 09:05:15;;;;;;;11.20;10.10;;;;;;;10.00;100.00;98671.44;6102185;23;20171;-88
2023/10/30 09:07:46;;;;;;;11.03;10.07;;;;;;;10.01;100.00;98678.44;6101758;23;20738;-86
2023/10/30 09:10:14;;;;;;;10.43;9.43;;;;;;;10.24;100.00;98677.56;6079334;23;20251;-87
2023/10/30 09:12:45;;;;;;;11.27;10.10;;;;;;;10.30;100.00;98673.91;6102234;23;20172;-86
2023/10/30 09:15:15;;;;;;;10.87;9.77;;;;;;;10.55;100.00;98674.34;6102384;23;20227;-87
2023/10/30 09:17:43;;;;;;;9.13;8.33;;;;;;;10.79;100.00;98671.50;6101815;23;20211;-88
2023/10/30 09:20:14;;;;;;;9.73;8.73;;;;;;;10.97;100.00;98673.94;6079011;23;20176;-86
2023/10/30 09:22:45;;;;;;;10.80;9.73;;;;;;;11.07;100.00;98666.03;6079314;23;20167;-86
2023/10/30 09:25:15;;;;;;;11.77;9.47;;;;;;;11.17;100.00;98658.16;6078434;23;20196;-86
2023/10/30 09:27:44;;;;;;;9.87;8.97;;;;;;;11.21;100.00;98658.47;6077958;23;20250;-88
2023/10/30 09:30:15;;;;;;;11.23;10.23;;;;;;;11.21;100.00;98667.31;6102997;23;20164;-87
2023/10/30 09:32:48;;;;;;;10.60;9.60;;;;;;;11.05;100.00;98668.19;6102026;23;20171;-87
2023/10/30 09:35:18;;;;;;;11.27;10.03;;;;;;;11.21;100.00;98666.50;6101733;23;20168;-86
2023/10/30 09:37:45;;;;;;;10.10;9.20;;;;;;;11.35;100.00;98673.97;6077777;23;20210;-86
2023/10/30 09:40:15;;;;;;;11.07;10.17;;;;;;;11.41;100.00;98669.47;6127075;23;20171;-85
2023/10/30 09:42:53;;;;;;;10.67;9.77;;;;;;;11.45;100.00;98667.91;6101417;23;20610;-85
2023/10/30 09:45:25;;;;;;;11.17;10.07;;;;;;;11.48;100.00;98662.88;6101918;23;20196;-86
2023/10/30 09:47:54;;;;;;;11.10;10.10;;;;;;;11.36;100.00;98661.38;6101019;23;20184;-86
2023/10/30 09:50:23;;;;;;;11.00;10.00;;;;;;;11.29;100.00;98639.28;6101085;23;20171;-88
2023/10/30 09:52:56;;;;;;;11.60;10.23;;;;;;;11.21;100.00;98637.03;6077918;23;20454;-87
2023/10/30 09:55:28;;;;;;;11.30;10.20;;;;;;;11.36;100.00;98637.22;6101738;23;20691;-85
2023/10/30 09:57:56;;;;;;;12.77;11.70;;;;;;;11.52;100.00;98649.78;6124932;23;20267;-84
2023/10/30 10:00:25;;;;;;;12.13;11.03;;;;;;;11.56;100.00;98652.78;6101197;23;20204;-86
2023/10/30 10:02:57;;;;;;;12.60;11.40;;;;;;;11.67;100.00;98643.78;6100995;23;20191;-86
2023/10/30 10:05:30;;;;;;;12.17;11.00;;;;;;;11.52;100.00;98627.53;6102222;23;20203;-86
2023/10/30 10:07:58;;;;;;;12.50;11.40;;;;;;;11.45;100.00;98616.97;6100498;23;20204;-86
2023/10/30 10:10:27;;;;;;;11.63;10.53;;;;;;;11.38;100.00;98621.72;6101278;23;20161;-85
2023/10/30 10:12:59;;;;;;;12.53;11.43;;;;;;;10.98;100.00;98633.50;6126370;23;20168;-88
2023/10/30 10:15:34;;;;;;;12.50;11.30;;;;;;;10.92;100.00;98636.34;6080677;23;20168;-87
2023/10/30 10:18:01;;;;;;;13.13;11.83;;;;;;;10.82;100.00;98628.97;6126153;23;20270;-86
2023/10/30 10:20:32;;;;;;;12.67;11.47;;;;;;;10.61;100.00;98629.72;6101912;23;20254;-86
2023/10/30 10:23:00;;;;;;;13.37;12.03;;;;;;;10.65;100.00;98641.56;6101327;23;20652;-86
2023/10/30 10:25:33;;;;;;;13.33;12.00;;;;;;;10.93;100.00;98632.59;6101663;23;20638;-87
2023/10/30 10:28:04;;;;;;;13.43;12.03;;;;;;;11.06;100.00;98618.06;6078610;23;20175;-86
2023/10/30 10:30:42;;;;;;;13.57;12.47;;;;;;;11.25;100.00;98614.81;6124804;23;20151;-87
2023/10/30 10:33:27;;;;;;;14.80;13.40;;;;;;;11.33;100.00;98608.25;6103046;23;20186;-86
2023/10/30 10:36:01;;;;;;;14.23;12.83;;;;;;;11.31;100.00;98591.56;6078178;23;20509;-88
2023/10/30 10:38:35;;;;;;;15.43;13.83;;;;;;;11.57;100.00;98603.44;6102178;23;20191;-86
2023/10/30 10:41:07;;;;;;;15.00;13.60;;;;;;;11.83;100.00;98598.13;6101448;23;20186;-86
2023/10/30 10:43:36;;;;;;;14.00;12.70;;;;;;;12.16;100.00;98593.63;6124409;23;20179;-85
2023/10/30 10:46:08;;;;;;;13.53;12.33;;;;;;;12.32;100.00;98598.03;6100667;23;20160;-85
2023/10/30 10:48:36;;;;;;;14.17;12.87;;;;;;;12.48;100.00;98586.38;6100787;23;20235;-86
2023/10/30 10:51:05;;;;;;;13.47;12.27;;;;;;;12.79;100.00;98557.81;6100370;23;20615;-86
2023/10/30 10:53:34;;;;;;;13.47;12.23;;;;;;;12.99;100.00;98559.81;6124070;23;20173;-84
2023/10/30 10:56:10;;;;;;;12.20;11.20;;;;;;;12.95;100.00;98572.16;6124245;23;20159;-85
2023/10/30 10:58:49;;;;;;;12.77;11.57;;;;;;;13.26;100.00;98573.97;6099797;23;20201;-86
2023/10/30 11:01:25;;;;;;;12.07;10.93;;;;;;;13.43;100.00;98571.09;6124448;23;20156;-85
2023/10/30 11:03:58;;;;;;;12.57;11.37;;;;;;;13.47;100.00;98562.22;6123912;23;20169;-85
2023/10/30 11:06:42;;;;;;;12.40;11.30;;;;;;;13.08;100.00;98550.19;6100233;23;20230;-86
2023/10/30 11:09:36;;;;;;;13.03;11.93;;;;;;;12.95;100.00;98545.28;6125622;23;20149;-86
2023/10/30 11:12:19;;;;;;;12.90;11.70;;;;;;;13.04;100.00;98549.09;6093906;23;20184;-86
2023/10/30 11:15:20;;;;;;;13.90;12.63;;;;;;;12.84;100.00;98549.78;6100556;23;20167;-86
2023/10/30 11:18:17;;;;;;;13.73;12.37;;;;;;;12.77;100.00;98541.16;6101241;23;20196;-86
2023/10/30 11:21:10;;;;;;;13.50;12.30;;;;;;;12.95;100.00;98553.34;6101344;23;20157;-85
2023/10/30 11:23:56;;;;;;;13.80;12.50;;;;;;;13.25;100.00;98544.66;6124067;23;20542;-85
2023/10/30 11:26:39;;;;;;;13.90;12.50;;;;;;;13.39;100.00;98543.88;6101934;23;20221;-86
2023/10/30 11:29:12;;;;;;;14.30;12.90;;;;;;;13.38;100.00;98536.09;6077550;23;20170;-86
2023/10/30 11:31:59;;;;;;;15.13;13.73;;;;;;;13.52;100.00;98539.91;6123984;23;20196;-86
2023/10/30 11:34:32;;;;;;;14.57;13.17;;;;;;;13.59;100.00;98535.06;6100310;23;20170;-85
2023/10/30 11:37:09;;;;;;;14.37;13.17;;;;;;;13.96;100.00;98522.22;6100181;23;20632;-85
2023/10/30 11:39:54;;;;;;;15.10;13.70;;;;;;;13.75;100.00;98517.09;6077081;23;20194;-85
2023/10/30 11:42:29;;;;;;;13.80;12.60;;;;;;;13.81;100.00;98506.03;6078032;23;20171;-85
2023/10/30 11:45:24;;;;;;;13.83;12.63;;;;;;;13.72;100.00;98504.97;6123653;23;20260;-84